createdAt,value
2019-02-25T00:02:28.390Z,2.10
2019-02-25T00:04:58.639Z,2.00
2019-02-25T00:07:29.027Z,1.90
2019-02-25T00:09:59.322Z,1.80
2019-02-25T00:12:29.633Z,1.80
2019-02-25T00:14:59.933Z,1.70
2019-02-25T00:17:30.209Z,1.80
2019-02-25T00:20:00.475Z,1.70
2019-02-25T00:22:30.796Z,1.60
2019-02-25T00:25:01.086Z,1.70
2019-02-25T00:27:31.376Z,1.80
2019-02-25T00:30:01.646Z,1.70
2019-02-25T00:32:31.949Z,1.50
2019-02-25T00:35:02.218Z,1.50
2019-02-25T00:37:32.561Z,1.40
2019-02-25T00:40:02.828Z,1.20
2019-02-25T00:42:33.102Z,1.00
2019-02-25T00:45:03.433Z,1.30
2019-02-25T00:47:33.686Z,1.30
2019-02-25T00:50:04.328Z,1.20
2019-02-25T00:52:34.555Z,1.30
2019-02-25T00:55:05.239Z,1.20
2019-02-25T00:57:35.469Z,1.30
2019-02-25T01:00:09.390Z,1.10
2019-02-25T01:02:39.643Z,1.30
2019-02-25T01:05:10.170Z,1.20
2019-02-25T01:07:40.506Z,1.10
2019-02-25T01:10:11.118Z,1.10
2019-02-25T01:12:42.403Z,1.00
2019-02-25T01:15:13.178Z,1.30
2019-02-25T01:17:43.457Z,1.10
2019-02-25T01:20:13.832Z,1.10
2019-02-25T01:22:44.221Z,0.80
2019-02-25T01:25:14.638Z,1.10
2019-02-25T01:27:44.891Z,1.00
2019-02-25T01:30:16.690Z,1.00
2019-02-25T01:32:46.948Z,1.00
2019-02-25T01:35:17.222Z,0.80
2019-02-25T01:37:47.634Z,1.00
2019-02-25T01:40:17.879Z,0.70
2019-02-25T01:42:48.142Z,0.80
2019-02-25T01:45:18.450Z,0.90
2019-02-25T01:47:48.718Z,0.60
2019-02-25T01:50:19.094Z,0.70
2019-02-25T01:52:49.450Z,0.50
2019-02-25T01:55:19.751Z,0.50
2019-02-25T01:57:50.016Z,0.50
2019-02-25T02:00:21.741Z,0.40
2019-02-25T02:02:52.028Z,0.50
2019-02-25T02:05:24.344Z,0.30
2019-02-25T02:07:54.386Z,0.30
2019-02-25T02:10:24.633Z,0.20
2019-02-25T02:12:54.890Z,0.10
2019-02-25T02:15:25.272Z,0.10
2019-02-25T02:17:55.533Z,0.00
2019-02-25T02:20:25.827Z,0.00
2019-02-25T02:23:15.033Z,0.00
2019-02-25T02:25:45.354Z,0.20
2019-02-25T02:28:15.617Z,0.00
2019-02-25T02:30:45.898Z,0.00
2019-02-25T02:33:16.153Z,0.20
2019-02-25T02:35:46.398Z,0.20
2019-02-25T02:38:16.662Z,0.00
2019-02-25T02:40:46.915Z,0.00
2019-02-25T02:43:17.199Z,0.00
2019-02-25T02:46:03.941Z,0.10
2019-02-25T02:48:50.261Z,0.10
2019-02-25T02:51:20.507Z,0.10
2019-02-25T02:53:50.889Z,0.00
2019-02-25T02:56:21.138Z,0.00
2019-02-25T02:58:51.413Z,0.10
2019-02-25T03:01:21.673Z,0.10
2019-02-25T03:03:51.943Z,0.10
2019-02-25T03:06:22.194Z,0.00
2019-02-25T03:08:52.462Z,0.00
2019-02-25T03:11:22.742Z,0.00
2019-02-25T03:13:52.996Z,-0.10
2019-02-25T03:16:23.266Z,-0.20
2019-02-25T03:18:53.536Z,-0.10
2019-02-25T03:21:23.822Z,-0.20
2019-02-25T03:23:54.134Z,-0.20
2019-02-25T03:26:24.429Z,-0.30
2019-02-25T03:28:54.701Z,0.00
2019-02-25T03:31:24.991Z,-0.20
2019-02-25T03:33:55.238Z,0.00
2019-02-25T03:36:25.507Z,-0.10
2019-02-25T03:38:55.756Z,-0.40
2019-02-25T03:41:26.032Z,-0.30
2019-02-25T03:43:56.399Z,-0.20
2019-02-25T03:46:26.713Z,-0.30
2019-02-25T03:48:56.955Z,-0.10
2019-02-25T03:51:27.205Z,-0.20
2019-02-25T03:53:57.489Z,-0.20
2019-02-25T03:56:27.745Z,-0.30
2019-02-25T03:58:58.046Z,-0.20
2019-02-25T04:01:28.395Z,-0.20
2019-02-25T04:03:58.661Z,-0.10
2019-02-25T04:06:30.350Z,0.10
2019-02-25T04:09:00.597Z,0.30
2019-02-25T04:11:30.892Z,0.30
2019-02-25T04:14:01.274Z,0.60
2019-02-25T04:16:31.701Z,0.50
2019-02-25T04:19:01.947Z,0.90
2019-02-25T04:21:32.274Z,1.00
2019-02-25T04:24:02.545Z,1.20
2019-02-25T04:26:32.821Z,1.20
2019-02-25T04:29:03.079Z,1.60
2019-02-25T04:31:33.317Z,1.50
2019-02-25T04:34:03.569Z,1.80
2019-02-25T04:36:33.853Z,1.90
2019-02-25T04:39:04.722Z,1.80
2019-02-25T04:41:34.969Z,2.10
2019-02-25T04:44:05.244Z,2.00
2019-02-25T04:46:35.535Z,2.30
2019-02-25T04:49:05.802Z,2.30
2019-02-25T04:51:36.030Z,2.30
2019-02-25T04:54:06.282Z,2.40
2019-02-25T04:56:36.553Z,2.60
2019-02-25T04:59:06.802Z,2.70
2019-02-25T05:01:37.079Z,2.50
2019-02-25T05:04:07.340Z,2.50
2019-02-25T05:06:37.610Z,2.50
2019-02-25T05:09:08.027Z,2.50
2019-02-25T05:11:38.327Z,2.60
2019-02-25T05:14:08.558Z,2.60
2019-02-25T05:16:40.050Z,2.70
2019-02-25T05:19:10.395Z,2.60
2019-02-25T05:21:40.633Z,2.60
2019-02-25T05:24:10.918Z,2.80
2019-02-25T05:26:41.206Z,2.90
2019-02-25T05:29:11.678Z,2.70
2019-02-25T05:31:41.945Z,2.90
2019-02-25T05:34:12.204Z,2.70
2019-02-25T05:36:42.469Z,2.70
2019-02-25T05:39:12.735Z,3.10
2019-02-25T05:41:42.969Z,2.80
2019-02-25T05:44:13.238Z,2.90
2019-02-25T05:46:43.486Z,3.10
2019-02-25T05:49:13.752Z,3.10
2019-02-25T05:51:44.069Z,3.00
2019-02-25T05:54:14.305Z,3.20
2019-02-25T05:56:44.567Z,3.10
2019-02-25T05:59:15.042Z,2.90
2019-02-25T06:01:45.311Z,3.00
2019-02-25T06:04:15.601Z,3.30
2019-02-25T06:06:45.929Z,3.40
2019-02-25T06:09:16.189Z,3.40
2019-02-25T06:11:46.490Z,3.40
2019-02-25T06:14:16.742Z,3.30
2019-02-25T06:16:49.906Z,3.50
2019-02-25T06:19:20.573Z,3.50
2019-02-25T06:21:50.927Z,3.70
2019-02-25T06:24:21.218Z,3.50
2019-02-25T06:26:51.525Z,3.50
2019-02-25T06:29:21.790Z,3.50
2019-02-25T06:31:52.059Z,3.40
2019-02-25T06:34:22.337Z,3.30
2019-02-25T06:36:52.585Z,3.70
2019-02-25T06:39:22.870Z,3.70
2019-02-25T06:41:53.109Z,3.40
2019-02-25T06:44:23.373Z,3.40
2019-02-25T06:46:53.632Z,3.30
2019-02-25T06:49:24.001Z,3.50
2019-02-25T06:51:54.322Z,3.50
2019-02-25T06:54:24.546Z,3.50
2019-02-25T06:56:54.803Z,3.70
2019-02-25T06:59:25.074Z,3.70
2019-02-25T07:01:55.363Z,3.90
2019-02-25T07:04:39.514Z,3.40
2019-02-25T07:07:23.441Z,3.70
2019-02-25T07:10:05.262Z,3.80
2019-02-25T07:12:41.549Z,3.60
2019-02-25T07:15:18.553Z,3.80
2019-02-25T07:18:07.682Z,4.20
2019-02-25T07:20:56.834Z,4.20
2019-02-25T07:24:04.089Z,4.30
2019-02-25T07:26:56.471Z,4.30
2019-02-25T07:29:57.950Z,4.30
2019-02-25T07:32:38.748Z,4.50
2019-02-25T07:35:26.819Z,4.60
2019-02-25T07:38:15.499Z,4.60
2019-02-25T07:40:54.842Z,4.60
2019-02-25T07:43:46.578Z,4.50
2019-02-25T07:46:38.735Z,4.60
2019-02-25T07:49:17.476Z,4.80
2019-02-25T07:52:03.115Z,4.70
2019-02-25T07:54:45.598Z,4.80
2019-02-25T07:57:28.473Z,4.90
2019-02-25T08:00:23.389Z,4.90
2019-02-25T08:03:12.501Z,5.00
2019-02-25T08:06:01.641Z,4.80
2019-02-25T08:09:06.219Z,5.00
2019-02-25T08:11:46.371Z,5.00
2019-02-25T08:14:38.265Z,5.00
2019-02-25T08:17:21.517Z,5.10
2019-02-25T08:20:25.785Z,4.80
2019-02-25T08:23:13.505Z,5.00
2019-02-25T08:26:08.458Z,5.20
2019-02-25T08:28:45.665Z,5.20
2019-02-25T08:31:33.666Z,5.20
2019-02-25T08:34:21.841Z,5.10
2019-02-25T08:37:48.441Z,5.50
2019-02-25T08:40:59.565Z,5.60
2019-02-25T08:43:48.695Z,5.70
2019-02-25T08:46:23.691Z,5.90
2019-02-25T08:49:00.682Z,6.00
2019-02-25T08:51:30.977Z,6.10
2019-02-25T08:54:01.314Z,5.90
2019-02-25T08:56:31.619Z,6.30
2019-02-25T08:59:01.879Z,6.40
2019-02-25T09:01:32.220Z,6.70
2019-02-25T09:04:02.481Z,6.60
2019-02-25T09:06:32.791Z,6.60
2019-02-25T09:09:03.483Z,6.70
2019-02-25T09:11:33.750Z,6.80
2019-02-25T09:14:04.229Z,7.00
2019-02-25T09:16:34.461Z,6.90
2019-02-25T09:19:04.732Z,6.80
2019-02-25T09:21:35.137Z,6.90
2019-02-25T09:24:05.489Z,6.90
2019-02-25T09:26:35.778Z,7.20
2019-02-25T09:29:06.050Z,7.00
2019-02-25T09:31:36.303Z,6.80
2019-02-25T09:34:06.591Z,7.10
2019-02-25T09:36:36.850Z,7.10
2019-02-25T09:39:11.793Z,7.20
2019-02-25T09:41:42.121Z,7.40
2019-02-25T09:44:12.480Z,7.40
2019-02-25T09:46:42.787Z,7.60
2019-02-25T09:49:13.119Z,7.30
2019-02-25T09:51:43.347Z,6.80
2019-02-25T09:54:13.613Z,7.30
2019-02-25T09:56:43.950Z,7.20
2019-02-25T09:59:14.185Z,7.10
2019-02-25T10:01:44.454Z,7.40
2019-02-25T10:04:14.721Z,7.70
2019-02-25T10:06:44.977Z,7.60
2019-02-25T10:09:15.266Z,7.70
2019-02-25T10:11:45.519Z,7.70
2019-02-25T10:14:15.798Z,8.10
2019-02-25T10:16:46.096Z,7.80
2019-02-25T10:19:16.365Z,7.60
2019-02-25T10:21:46.650Z,7.70
2019-02-25T10:24:16.911Z,7.50
2019-02-25T10:26:47.199Z,7.70
2019-02-25T10:29:17.527Z,7.80
2019-02-25T10:31:47.789Z,7.80
2019-02-25T10:34:18.116Z,7.70
2019-02-25T10:36:50.177Z,8.00
2019-02-25T10:39:20.193Z,8.00
2019-02-25T10:41:51.235Z,8.20
2019-02-25T10:44:22.360Z,8.10
2019-02-25T10:46:52.642Z,7.90
2019-02-25T10:49:24.427Z,7.60
2019-02-25T10:51:54.793Z,7.20
2019-02-25T10:54:25.520Z,7.60
2019-02-25T10:57:01.450Z,7.80
2019-02-25T10:59:32.690Z,7.80
2019-02-25T11:02:04.175Z,7.90
2019-02-25T11:04:34.558Z,7.90
2019-02-25T11:07:05.696Z,8.10
2019-02-25T11:10:16.067Z,7.90
2019-02-25T11:12:46.018Z,7.80
2019-02-25T11:15:16.318Z,7.30
2019-02-25T11:17:47.670Z,7.40
2019-02-25T11:20:18.457Z,7.10
2019-02-25T11:22:48.704Z,6.80
2019-02-25T11:25:21.027Z,7.20
2019-02-25T11:27:51.193Z,7.10
2019-02-25T11:30:23.680Z,7.10
2019-02-25T11:32:55.582Z,7.20
2019-02-25T11:35:25.302Z,7.50
2019-02-25T11:37:57.051Z,7.60
2019-02-25T11:40:28.949Z,7.70
2019-02-25T11:42:59.334Z,7.60
2019-02-25T11:45:29.677Z,7.60
2019-02-25T11:47:59.951Z,7.50
2019-02-25T11:50:30.274Z,7.40
2019-02-25T11:53:00.546Z,7.10
2019-02-25T11:55:30.810Z,7.10
2019-02-25T11:58:01.073Z,7.20
2019-02-25T12:00:31.370Z,7.30
2019-02-25T12:03:01.632Z,7.20
2019-02-25T12:05:32.046Z,7.20
2019-02-25T12:08:02.319Z,7.30
2019-02-25T12:10:32.626Z,7.40
2019-02-25T12:13:02.866Z,7.50
2019-02-25T12:15:33.138Z,7.80
2019-02-25T12:18:03.434Z,8.00
2019-02-25T12:20:33.698Z,8.10
2019-02-25T12:23:03.981Z,8.10
2019-02-25T12:25:34.264Z,7.70
2019-02-25T12:28:04.565Z,7.50
2019-02-25T12:30:34.990Z,7.40
2019-02-25T12:33:05.277Z,7.30
2019-02-25T12:35:35.554Z,7.30
2019-02-25T12:38:05.919Z,7.40
2019-02-25T12:40:36.287Z,7.20
2019-02-25T12:43:06.622Z,7.50
2019-02-25T12:45:36.921Z,7.60
2019-02-25T12:48:07.166Z,7.50
2019-02-25T12:50:37.572Z,7.70
2019-02-25T12:53:07.913Z,7.60
2019-02-25T12:55:38.213Z,8.00
2019-02-25T12:58:08.470Z,7.90
2019-02-25T13:00:38.787Z,7.60
2019-02-25T13:03:09.041Z,7.40
2019-02-25T13:05:39.360Z,7.20
2019-02-25T13:08:09.625Z,7.40
2019-02-25T13:10:39.899Z,7.10
2019-02-25T13:13:10.165Z,7.00
2019-02-25T13:15:40.431Z,6.90
2019-02-25T13:18:10.693Z,6.90
2019-02-25T13:20:41.063Z,6.90
2019-02-25T13:23:11.345Z,6.80
2019-02-25T13:25:41.647Z,7.10
2019-02-25T13:28:11.921Z,6.90
2019-02-25T13:30:42.222Z,7.00
2019-02-25T13:33:12.509Z,6.80
2019-02-25T13:35:42.794Z,6.60
2019-02-25T13:38:13.034Z,6.40
2019-02-25T13:40:43.311Z,6.40
2019-02-25T13:43:13.593Z,6.10
2019-02-25T13:45:43.904Z,6.10
2019-02-25T13:48:14.405Z,6.30
2019-02-25T13:50:44.682Z,6.00
2019-02-25T13:53:14.948Z,6.00
2019-02-25T13:55:45.513Z,6.10
2019-02-25T13:58:15.789Z,6.10
2019-02-25T14:00:46.180Z,6.10
2019-02-25T14:03:16.439Z,6.20
2019-02-25T14:05:46.746Z,6.10
2019-02-25T14:08:17.021Z,6.00
2019-02-25T14:10:47.358Z,6.10
2019-02-25T14:13:17.612Z,6.10
2019-02-25T14:15:47.877Z,6.10
2019-02-25T14:18:18.153Z,5.60
2019-02-25T14:20:48.501Z,5.50
2019-02-25T14:23:20.359Z,5.50
2019-02-25T14:25:50.775Z,5.40
2019-02-25T14:28:21.041Z,5.50
2019-02-25T14:30:51.666Z,5.30
2019-02-25T14:33:23.518Z,5.30
2019-02-25T14:35:54.342Z,5.30
2019-02-25T14:38:25.313Z,5.20
2019-02-25T14:40:56.899Z,5.30
2019-02-25T14:43:27.898Z,5.30
2019-02-25T14:45:58.944Z,5.40
2019-02-25T14:48:30.950Z,5.20
2019-02-25T14:51:01.973Z,5.10
2019-02-25T14:53:32.277Z,5.20
2019-02-25T14:56:03.840Z,5.30
2019-02-25T14:58:36.161Z,5.00
2019-02-25T15:01:06.877Z,4.90
2019-02-25T15:03:37.132Z,4.90
2019-02-25T15:06:07.542Z,4.90
2019-02-25T15:08:37.792Z,5.10
2019-02-25T15:11:09.215Z,4.80
2019-02-25T15:13:40.077Z,4.90
2019-02-25T15:16:10.450Z,4.60
2019-02-25T15:18:41.086Z,4.50
2019-02-25T15:21:14.177Z,4.50
2019-02-25T15:23:46.111Z,4.30
2019-02-25T15:26:17.371Z,4.20
2019-02-25T15:28:51.691Z,4.10
2019-02-25T15:31:20.483Z,3.90
2019-02-25T15:33:50.791Z,3.80
2019-02-25T15:36:22.279Z,3.80
2019-02-25T15:38:52.954Z,3.90
2019-02-25T15:41:23.222Z,3.70
2019-02-25T15:43:53.717Z,3.80
2019-02-25T15:46:24.698Z,4.10
2019-02-25T15:48:56.077Z,3.90
2019-02-25T15:51:28.441Z,3.90
2019-02-25T15:53:59.819Z,4.10
2019-02-25T15:56:30.364Z,4.30
2019-02-25T15:59:00.627Z,4.30
2019-02-25T16:01:30.928Z,4.10
2019-02-25T16:04:02.911Z,4.40
2019-02-25T16:06:35.523Z,4.30
2019-02-25T16:09:08.985Z,4.20
2019-02-25T16:11:41.227Z,4.20
2019-02-25T16:14:11.421Z,4.00
2019-02-25T16:17:32.630Z,3.90
2019-02-25T16:20:04.427Z,4.10
2019-02-25T16:22:36.414Z,4.10
2019-02-25T16:25:09.937Z,4.00
2019-02-25T16:27:42.981Z,4.00
2019-02-25T16:30:14.031Z,3.90
2019-02-25T16:32:46.286Z,4.00
2019-02-25T16:35:16.842Z,4.20
2019-02-25T16:37:48.631Z,4.00
2019-02-25T16:40:19.137Z,4.00
2019-02-25T16:42:49.919Z,4.00
2019-02-25T16:45:20.321Z,4.20
2019-02-25T16:47:50.656Z,4.00
2019-02-25T16:50:21.434Z,4.00
2019-02-25T16:52:52.819Z,4.00
2019-02-25T16:55:26.973Z,4.00
2019-02-25T16:57:55.979Z,3.70
2019-02-25T17:00:29.379Z,4.00
2019-02-25T17:03:01.381Z,3.70
2019-02-25T17:05:30.327Z,3.50
2019-02-25T17:08:01.222Z,3.50
2019-02-25T17:10:33.815Z,3.60
2019-02-25T17:13:06.395Z,3.70
2019-02-25T17:15:37.470Z,3.80
2019-02-25T17:18:07.742Z,3.80
2019-02-25T17:20:38.258Z,3.90
2019-02-25T17:23:10.053Z,3.60
2019-02-25T17:25:41.398Z,3.60
2019-02-25T17:28:17.032Z,3.80
2019-02-25T17:30:45.582Z,3.40
2019-02-25T17:33:16.494Z,3.50
2019-02-25T17:35:47.573Z,3.40
2019-02-25T17:38:20.915Z,3.60
2019-02-25T17:40:50.713Z,3.50
2019-02-25T17:43:21.150Z,3.40
2019-02-25T17:45:51.525Z,3.50
2019-02-25T17:48:21.825Z,3.80
2019-02-25T17:50:53.477Z,3.60
2019-02-25T17:53:25.823Z,3.40
2019-02-25T17:55:57.686Z,3.60
2019-02-25T17:58:28.156Z,3.50
2019-02-25T18:01:01.117Z,3.50
2019-02-25T18:03:31.753Z,3.70
2019-02-25T18:06:03.447Z,3.50
2019-02-25T18:08:34.376Z,3.60
2019-02-25T18:11:05.261Z,3.30
2019-02-25T18:13:35.655Z,3.30
2019-02-25T18:16:08.002Z,3.40
2019-02-25T18:18:39.180Z,3.30
2019-02-25T18:21:10.242Z,3.40
2019-02-25T18:23:40.615Z,3.30
2019-02-25T18:26:14.947Z,3.60
2019-02-25T18:28:45.873Z,3.70
2019-02-25T18:31:16.957Z,3.50
2019-02-25T18:33:48.591Z,3.40
2019-02-25T18:36:19.158Z,3.40
2019-02-25T18:38:50.609Z,3.50
2019-02-25T18:41:23.034Z,3.50
2019-02-25T18:43:53.601Z,3.40
2019-02-25T18:46:25.559Z,3.70
2019-02-25T18:48:55.838Z,3.50
2019-02-25T18:51:26.506Z,3.40
2019-02-25T18:53:59.735Z,3.40
2019-02-25T18:56:30.591Z,3.60
2019-02-25T18:59:08.838Z,3.40
2019-02-25T19:01:33.458Z,3.30
2019-02-25T19:04:03.883Z,3.30
2019-02-25T19:06:34.350Z,3.50
2019-02-25T19:09:05.947Z,3.50
2019-02-25T19:11:36.255Z,3.20
2019-02-25T19:14:07.162Z,3.20
2019-02-25T19:16:38.103Z,3.30
2019-02-25T19:19:10.602Z,3.40
2019-02-25T19:21:42.406Z,3.40
2019-02-25T19:24:14.378Z,3.10
2019-02-25T19:26:46.756Z,3.30
2019-02-25T19:29:17.815Z,3.30
2019-02-25T19:31:49.111Z,3.40
2019-02-25T19:34:19.433Z,3.40
2019-02-25T19:36:49.970Z,3.20
2019-02-25T19:39:21.664Z,3.20
2019-02-25T19:41:53.783Z,3.10
2019-02-25T19:44:24.077Z,3.30
2019-02-25T19:46:55.808Z,3.10
2019-02-25T19:49:26.500Z,3.10
2019-02-25T19:51:57.014Z,3.10
2019-02-25T19:54:29.414Z,3.20
2019-02-25T19:56:59.420Z,3.10
2019-02-25T19:59:30.981Z,3.20
2019-02-25T20:02:01.578Z,3.40
2019-02-25T20:04:35.527Z,3.40
2019-02-25T20:07:03.975Z,3.60
2019-02-25T20:09:34.596Z,3.30
2019-02-25T20:12:04.882Z,3.10
2019-02-25T20:14:35.266Z,3.20
2019-02-25T20:17:05.870Z,3.30
2019-02-25T20:19:36.150Z,3.40
2019-02-25T20:22:07.871Z,3.10
2019-02-25T20:24:42.365Z,3.20
2019-02-25T20:27:10.836Z,3.20
2019-02-25T20:29:42.444Z,3.20
2019-02-25T20:32:14.290Z,3.20
2019-02-25T20:34:46.341Z,3.30
2019-02-25T20:37:18.974Z,3.30
2019-02-25T20:39:49.263Z,3.30
2019-02-25T20:42:21.800Z,3.30
2019-02-25T20:44:53.445Z,3.40
2019-02-25T20:47:23.565Z,3.10
2019-02-25T20:49:55.696Z,3.20
2019-02-25T20:52:25.743Z,3.40
2019-02-25T20:54:56.006Z,3.20
2019-02-25T20:57:26.354Z,3.20
2019-02-25T20:59:57.512Z,3.30
2019-02-25T21:02:27.857Z,3.30
2019-02-25T21:04:58.259Z,3.30
2019-02-25T21:07:29.729Z,3.30
2019-02-25T21:10:03.392Z,3.20
2019-02-25T21:12:32.942Z,3.30
2019-02-25T21:15:03.213Z,3.20
2019-02-25T21:17:35.406Z,3.30
2019-02-25T21:20:08.912Z,3.30
2019-02-25T21:22:39.167Z,3.40
2019-02-25T21:25:09.798Z,3.30
2019-02-25T21:27:41.236Z,3.30
2019-02-25T21:30:16.122Z,3.30
2019-02-25T21:32:47.417Z,3.40
2019-02-25T21:35:18.558Z,3.50
2019-02-25T21:37:50.178Z,3.10
2019-02-25T21:40:22.355Z,3.40
2019-02-25T21:42:53.945Z,3.20
2019-02-25T21:45:27.177Z,3.40
2019-02-25T21:47:59.079Z,3.20
2019-02-25T21:50:30.781Z,3.30
2019-02-25T21:53:00.439Z,3.50
2019-02-25T21:55:32.647Z,3.60
2019-02-25T21:58:04.863Z,3.40
2019-02-25T22:00:37.443Z,3.60
2019-02-25T22:03:10.251Z,3.50
2019-02-25T22:05:38.562Z,3.30
2019-02-25T22:08:08.883Z,3.30
2019-02-25T22:10:41.109Z,3.60
2019-02-25T22:13:13.121Z,3.50
2019-02-25T22:15:45.160Z,3.40
2019-02-25T22:18:15.140Z,3.50
2019-02-25T22:20:47.132Z,3.30
2019-02-25T22:23:17.366Z,3.10
2019-02-25T22:25:47.671Z,3.20
2019-02-25T22:28:17.953Z,3.30
2019-02-25T22:30:49.771Z,3.20
2019-02-25T22:33:27.429Z,3.10
2019-02-25T22:35:52.114Z,3.00
2019-02-25T22:38:22.382Z,3.30
2019-02-25T22:40:53.589Z,3.10
2019-02-25T22:43:24.611Z,3.10
2019-02-25T22:45:58.101Z,3.20
2019-02-25T22:48:26.838Z,3.20
2019-02-25T22:50:57.725Z,3.40
2019-02-25T22:53:29.002Z,3.20
2019-02-25T22:55:59.435Z,3.20
2019-02-25T22:58:31.589Z,3.30
2019-02-25T23:01:17.525Z,3.20
2019-02-25T23:03:47.927Z,3.20
2019-02-25T23:06:19.098Z,3.10
2019-02-25T23:08:51.123Z,3.00
2019-02-25T23:11:24.334Z,3.40
2019-02-25T23:13:54.873Z,3.10
2019-02-25T23:16:25.580Z,3.30
2019-02-25T23:18:56.906Z,3.20
2019-02-25T23:21:29.325Z,3.20
2019-02-25T23:24:01.190Z,3.30
2019-02-25T23:26:31.046Z,3.30
2019-02-25T23:29:01.373Z,3.30
2019-02-25T23:31:31.689Z,3.20
2019-02-25T23:34:01.989Z,3.30
2019-02-25T23:36:32.346Z,3.10
2019-02-25T23:39:03.698Z,3.20
2019-02-25T23:41:36.271Z,3.40
2019-02-25T23:44:08.660Z,3.40
2019-02-25T23:46:39.858Z,3.30
2019-02-25T23:49:09.826Z,3.40
2019-02-25T23:51:41.671Z,3.20
2019-02-25T23:54:14.229Z,3.20
2019-02-25T23:56:45.810Z,3.50
2019-02-25T23:59:17.014Z,3.30
